sensor_id;sensor_type;location;lat;lon;timestamp;temperature;humidity
43607;DHT22;29197;44.788;10.366;2023-09-12T00:01:06;24.30;99.90
43607;DHT22;29197;44.788;10.366;2023-09-12T00:03:55;24.40;99.90
43607;DHT22;29197;44.788;10.366;2023-09-12T00:06:45;24.40;99.90
43607;DHT22;29197;44.788;10.366;2023-09-12T00:09:34;24.30;99.90
43607;DHT22;29197;44.788;10.366;2023-09-12T00:12:23;24.30;99.90
43607;DHT22;29197;44.788;10.366;2023-09-12T00:15:12;24.40;99.90
43607;DHT22;29197;44.788;10.366;2023-09-12T00:18:01;24.40;99.90
43607;DHT22;29197;44.788;10.366;2023-09-12T00:20:50;24.40;99.90
43607;DHT22;29197;44.788;10.366;2023-09-12T00:23:40;24.40;99.90
43607;DHT22;29197;44.788;10.366;2023-09-12T00:26:29;24.50;99.90
43607;DHT22;29197;44.788;10.366;2023-09-12T00:29:18;24.50;99.90
43607;DHT22;29197;44.788;10.366;2023-09-12T00:32:07;24.50;99.90
43607;DHT22;29197;44.788;10.366;2023-09-12T00:34:55;24.50;99.90
43607;DHT22;29197;44.788;10.366;2023-09-12T00:37:44;24.50;99.90
43607;DHT22;29197;44.788;10.366;2023-09-12T00:40:34;24.50;99.90
43607;DHT22;29197;44.788;10.366;2023-09-12T00:43:22;24.50;99.90
43607;DHT22;29197;44.788;10.366;2023-09-12T00:46:12;24.50;99.90
43607;DHT22;29197;44.788;10.366;2023-09-12T00:49:03;24.50;99.90
43607;DHT22;29197;44.788;10.366;2023-09-12T00:51:52;24.60;99.90
43607;DHT22;29197;44.788;10.366;2023-09-12T00:54:41;24.60;99.90
43607;DHT22;29197;44.788;10.366;2023-09-12T00:57:32;24.60;99.90
43607;DHT22;29197;44.788;10.366;2023-09-12T01:00:23;24.50;99.90
43607;DHT22;29197;44.788;10.366;2023-09-12T01:03:12;24.50;99.90
43607;DHT22;29197;44.788;10.366;2023-09-12T01:06:02;24.50;99.90
43607;DHT22;29197;44.788;10.366;2023-09-12T01:08:52;24.40;99.90
43607;DHT22;29197;44.788;10.366;2023-09-12T01:11:41;24.40;99.90
43607;DHT22;29197;44.788;10.366;2023-09-12T01:14:32;24.40;99.90
43607;DHT22;29197;44.788;10.366;2023-09-12T01:17:20;24.20;99.90
43607;DHT22;29197;44.788;10.366;2023-09-12T01:20:14;24.10;99.90
43607;DHT22;29197;44.788;10.366;2023-09-12T01:23:24;23.80;99.90
43607;DHT22;29197;44.788;10.366;2023-09-12T01:26:29;23.60;99.90
43607;DHT22;29197;44.788;10.366;2023-09-12T01:29:21;23.70;99.90
43607;DHT22;29197;44.788;10.366;2023-09-12T01:32:10;23.90;99.90
43607;DHT22;29197;44.788;10.366;2023-09-12T01:35:00;24.00;99.90
43607;DHT22;29197;44.788;10.366;2023-09-12T01:37:50;24.20;99.90
43607;DHT22;29197;44.788;10.366;2023-09-12T01:40:43;24.30;99.90
43607;DHT22;29197;44.788;10.366;2023-09-12T01:43:32;24.20;99.90
43607;DHT22;29197;44.788;10.366;2023-09-12T01:46:24;24.20;99.90
43607;DHT22;29197;44.788;10.366;2023-09-12T01:49:15;24.30;99.90
43607;DHT22;29197;44.788;10.366;2023-09-12T01:52:06;24.40;99.90
43607;DHT22;29197;44.788;10.366;2023-09-12T01:54:55;24.50;99.90
43607;DHT22;29197;44.788;10.366;2023-09-12T01:57:44;24.50;99.90
43607;DHT22;29197;44.788;10.366;2023-09-12T02:00:35;24.50;99.90
43607;DHT22;29197;44.788;10.366;2023-09-12T02:03:25;24.40;99.90
43607;DHT22;29197;44.788;10.366;2023-09-12T02:06:14;24.40;99.90
43607;DHT22;29197;44.788;10.366;2023-09-12T02:09:03;24.20;99.90
43607;DHT22;29197;44.788;10.366;2023-09-12T02:11:51;24.00;99.90
43607;DHT22;29197;44.788;10.366;2023-09-12T02:14:40;24.00;99.90
43607;DHT22;29197;44.788;10.366;2023-09-12T02:17:29;24.00;99.90
43607;DHT22;29197;44.788;10.366;2023-09-12T02:20:19;24.10;99.90
43607;DHT22;29197;44.788;10.366;2023-09-12T02:23:08;23.90;99.90
43607;DHT22;29197;44.788;10.366;2023-09-12T02:25:56;23.70;99.90
43607;DHT22;29197;44.788;10.366;2023-09-12T02:28:45;23.60;99.90
43607;DHT22;29197;44.788;10.366;2023-09-12T02:31:34;23.60;99.90
43607;DHT22;29197;44.788;10.366;2023-09-12T02:34:22;23.80;99.90
43607;DHT22;29197;44.788;10.366;2023-09-12T02:37:12;23.90;99.90
43607;DHT22;29197;44.788;10.366;2023-09-12T02:40:03;23.80;99.90
43607;DHT22;29197;44.788;10.366;2023-09-12T02:42:53;23.80;99.90
43607;DHT22;29197;44.788;10.366;2023-09-12T02:45:42;23.80;99.90
43607;DHT22;29197;44.788;10.366;2023-09-12T02:48:31;23.90;99.90
43607;DHT22;29197;44.788;10.366;2023-09-12T02:51:20;24.00;99.90
43607;DHT22;29197;44.788;10.366;2023-09-12T02:54:10;24.00;99.90
43607;DHT22;29197;44.788;10.366;2023-09-12T02:56:58;24.00;99.90
43607;DHT22;29197;44.788;10.366;2023-09-12T02:59:47;24.00;99.90
43607;DHT22;29197;44.788;10.366;2023-09-12T03:02:36;23.90;99.90
43607;DHT22;29197;44.788;10.366;2023-09-12T03:05:24;23.90;99.90
43607;DHT22;29197;44.788;10.366;2023-09-12T03:08:13;23.60;99.90
43607;DHT22;29197;44.788;10.366;2023-09-12T03:11:03;23.40;99.90
43607;DHT22;29197;44.788;10.366;2023-09-12T03:13:51;23.30;99.90
43607;DHT22;29197;44.788;10.366;2023-09-12T03:16:40;23.40;99.90
43607;DHT22;29197;44.788;10.366;2023-09-12T03:19:30;23.70;99.90
43607;DHT22;29197;44.788;10.366;2023-09-12T03:22:18;23.80;99.90
43607;DHT22;29197;44.788;10.366;2023-09-12T03:25:07;23.80;99.90
43607;DHT22;29197;44.788;10.366;2023-09-12T03:27:57;23.80;99.90
43607;DHT22;29197;44.788;10.366;2023-09-12T03:30:46;23.90;99.90
43607;DHT22;29197;44.788;10.366;2023-09-12T03:33:35;24.00;99.90
43607;DHT22;29197;44.788;10.366;2023-09-12T03:36:24;23.90;99.90
43607;DHT22;29197;44.788;10.366;2023-09-12T03:39:12;23.90;99.90
43607;DHT22;29197;44.788;10.366;2023-09-12T03:42:02;23.90;99.90
43607;DHT22;29197;44.788;10.366;2023-09-12T03:44:52;24.00;99.90
43607;DHT22;29197;44.788;10.366;2023-09-12T03:47:41;24.00;99.90
43607;DHT22;29197;44.788;10.366;2023-09-12T03:50:31;24.10;99.90
43607;DHT22;29197;44.788;10.366;2023-09-12T03:53:19;24.10;99.90
43607;DHT22;29197;44.788;10.366;2023-09-12T03:56:08;24.10;99.90
43607;DHT22;29197;44.788;10.366;2023-09-12T03:58:59;24.00;99.90
43607;DHT22;29197;44.788;10.366;2023-09-12T04:01:49;24.00;99.90
43607;DHT22;29197;44.788;10.366;2023-09-12T04:04:38;23.90;99.90
43607;DHT22;29197;44.788;10.366;2023-09-12T04:07:27;23.90;99.90
43607;DHT22;29197;44.788;10.366;2023-09-12T04:10:17;23.80;99.90
43607;DHT22;29197;44.788;10.366;2023-09-12T04:13:06;23.80;99.90
43607;DHT22;29197;44.788;10.366;2023-09-12T04:15:55;23.90;99.90
43607;DHT22;29197;44.788;10.366;2023-09-12T04:18:45;23.90;99.90
43607;DHT22;29197;44.788;10.366;2023-09-12T04:21:34;23.90;99.90
43607;DHT22;29197;44.788;10.366;2023-09-12T04:24:23;23.90;99.90
43607;DHT22;29197;44.788;10.366;2023-09-12T04:27:12;23.80;99.90
43607;DHT22;29197;44.788;10.366;2023-09-12T04:30:01;23.80;99.90
43607;DHT22;29197;44.788;10.366;2023-09-12T04:32:51;23.90;99.90
43607;DHT22;29197;44.788;10.366;2023-09-12T04:35:41;23.90;99.90
43607;DHT22;29197;44.788;10.366;2023-09-12T04:38:30;23.90;99.90
43607;DHT22;29197;44.788;10.366;2023-09-12T04:41:20;23.90;99.90
43607;DHT22;29197;44.788;10.366;2023-09-12T04:44:09;24.00;99.90
43607;DHT22;29197;44.788;10.366;2023-09-12T04:46:57;23.90;99.90
43607;DHT22;29197;44.788;10.366;2023-09-12T04:49:46;23.80;99.90
43607;DHT22;29197;44.788;10.366;2023-09-12T04:52:36;23.90;99.90
43607;DHT22;29197;44.788;10.366;2023-09-12T04:55:25;24.00;99.90
43607;DHT22;29197;44.788;10.366;2023-09-12T04:58:13;24.00;99.90
43607;DHT22;29197;44.788;10.366;2023-09-12T05:01:02;24.10;99.90
43607;DHT22;29197;44.788;10.366;2023-09-12T05:03:51;24.20;99.90
43607;DHT22;29197;44.788;10.366;2023-09-12T05:06:39;24.10;99.90
43607;DHT22;29197;44.788;10.366;2023-09-12T05:09:30;23.80;99.90
43607;DHT22;29197;44.788;10.366;2023-09-12T05:12:19;23.70;99.90
43607;DHT22;29197;44.788;10.366;2023-09-12T05:15:08;23.60;99.90
43607;DHT22;29197;44.788;10.366;2023-09-12T05:20:46;23.20;99.90
43607;DHT22;29197;44.788;10.366;2023-09-12T05:23:35;23.30;99.90
43607;DHT22;29197;44.788;10.366;2023-09-12T05:26:25;23.30;99.90
43607;DHT22;29197;44.788;10.366;2023-09-12T05:29:13;23.30;99.90
43607;DHT22;29197;44.788;10.366;2023-09-12T05:32:02;23.40;99.90
43607;DHT22;29197;44.788;10.366;2023-09-12T05:34:51;23.50;99.90
43607;DHT22;29197;44.788;10.366;2023-09-12T05:37:56;23.60;99.90
43607;DHT22;29197;44.788;10.366;2023-09-12T05:40:45;23.60;99.90
43607;DHT22;29197;44.788;10.366;2023-09-12T05:43:38;23.50;99.90
43607;DHT22;29197;44.788;10.366;2023-09-12T05:46:27;23.50;99.90
43607;DHT22;29197;44.788;10.366;2023-09-12T05:49:15;23.50;99.90
43607;DHT22;29197;44.788;10.366;2023-09-12T05:52:05;23.70;99.90
43607;DHT22;29197;44.788;10.366;2023-09-12T05:54:53;23.70;99.90
43607;DHT22;29197;44.788;10.366;2023-09-12T05:57:42;23.80;99.90
43607;DHT22;29197;44.788;10.366;2023-09-12T06:00:32;23.80;99.90
43607;DHT22;29197;44.788;10.366;2023-09-12T06:03:21;23.80;99.90
43607;DHT22;29197;44.788;10.366;2023-09-12T06:06:09;23.70;99.90
43607;DHT22;29197;44.788;10.366;2023-09-12T06:08:59;23.60;99.90
43607;DHT22;29197;44.788;10.366;2023-09-12T06:11:47;23.70;99.90
43607;DHT22;29197;44.788;10.366;2023-09-12T06:14:36;23.70;99.90
43607;DHT22;29197;44.788;10.366;2023-09-12T06:17:26;23.70;99.90
43607;DHT22;29197;44.788;10.366;2023-09-12T06:20:14;23.70;99.90
43607;DHT22;29197;44.788;10.366;2023-09-12T06:23:03;23.80;99.90
43607;DHT22;29197;44.788;10.366;2023-09-12T06:25:52;23.90;99.90
43607;DHT22;29197;44.788;10.366;2023-09-12T06:28:41;23.90;99.90
43607;DHT22;29197;44.788;10.366;2023-09-12T06:31:30;24.00;99.90
43607;DHT22;29197;44.788;10.366;2023-09-12T06:34:20;24.00;99.90
43607;DHT22;29197;44.788;10.366;2023-09-12T06:37:10;23.90;99.90
43607;DHT22;29197;44.788;10.366;2023-09-12T06:39:59;24.00;99.90
43607;DHT22;29197;44.788;10.366;2023-09-12T06:42:48;24.10;99.90
43607;DHT22;29197;44.788;10.366;2023-09-12T06:45:37;24.20;99.90
43607;DHT22;29197;44.788;10.366;2023-09-12T06:48:26;24.40;99.90
43607;DHT22;29197;44.788;10.366;2023-09-12T06:51:16;24.20;99.90
43607;DHT22;29197;44.788;10.366;2023-09-12T06:54:05;24.30;99.90
43607;DHT22;29197;44.788;10.366;2023-09-12T06:56:54;24.20;99.90
43607;DHT22;29197;44.788;10.366;2023-09-12T06:59:42;24.20;99.90
43607;DHT22;29197;44.788;10.366;2023-09-12T07:02:31;24.30;99.90
43607;DHT22;29197;44.788;10.366;2023-09-12T07:05:20;24.10;99.90
43607;DHT22;29197;44.788;10.366;2023-09-12T07:08:10;24.20;99.90
43607;DHT22;29197;44.788;10.366;2023-09-12T07:10:59;24.30;99.90
43607;DHT22;29197;44.788;10.366;2023-09-12T07:13:53;24.30;99.90
43607;DHT22;29197;44.788;10.366;2023-09-12T07:16:41;24.40;99.90
43607;DHT22;29197;44.788;10.366;2023-09-12T07:19:30;24.40;99.90
43607;DHT22;29197;44.788;10.366;2023-09-12T07:22:18;24.50;99.90
43607;DHT22;29197;44.788;10.366;2023-09-12T07:25:09;24.80;99.90
43607;DHT22;29197;44.788;10.366;2023-09-12T07:27:59;24.90;99.90
43607;DHT22;29197;44.788;10.366;2023-09-12T07:30:47;25.00;99.90
43607;DHT22;29197;44.788;10.366;2023-09-12T07:33:36;25.00;99.90
43607;DHT22;29197;44.788;10.366;2023-09-12T07:36:25;25.10;99.90
43607;DHT22;29197;44.788;10.366;2023-09-12T07:39:13;25.10;99.90
43607;DHT22;29197;44.788;10.366;2023-09-12T07:42:04;25.30;99.90
43607;DHT22;29197;44.788;10.366;2023-09-12T07:44:53;25.60;99.90
43607;DHT22;29197;44.788;10.366;2023-09-12T07:47:41;25.70;99.90
43607;DHT22;29197;44.788;10.366;2023-09-12T07:50:30;25.80;99.90
43607;DHT22;29197;44.788;10.366;2023-09-12T07:53:19;26.00;99.90
43607;DHT22;29197;44.788;10.366;2023-09-12T07:56:08;26.00;99.90
43607;DHT22;29197;44.788;10.366;2023-09-12T07:58:59;26.10;99.90
43607;DHT22;29197;44.788;10.366;2023-09-12T08:01:48;26.20;99.90
43607;DHT22;29197;44.788;10.366;2023-09-12T08:04:37;26.40;99.90
43607;DHT22;29197;44.788;10.366;2023-09-12T08:07:25;26.60;99.90
43607;DHT22;29197;44.788;10.366;2023-09-12T08:10:14;26.70;99.90
43607;DHT22;29197;44.788;10.366;2023-09-12T08:13:03;26.80;99.90
43607;DHT22;29197;44.788;10.366;2023-09-12T08:15:53;26.90;99.90
43607;DHT22;29197;44.788;10.366;2023-09-12T08:18:41;27.10;99.90
43607;DHT22;29197;44.788;10.366;2023-09-12T08:21:30;27.20;99.90
43607;DHT22;29197;44.788;10.366;2023-09-12T08:24:19;27.20;99.90
43607;DHT22;29197;44.788;10.366;2023-09-12T08:27:07;27.30;99.90
43607;DHT22;29197;44.788;10.366;2023-09-12T08:29:57;27.30;99.90
43607;DHT22;29197;44.788;10.366;2023-09-12T08:32:47;27.40;99.90
43607;DHT22;29197;44.788;10.366;2023-09-12T08:38:24;27.50;99.90
43607;DHT22;29197;44.788;10.366;2023-09-12T08:41:13;27.50;99.90
43607;DHT22;29197;44.788;10.366;2023-09-12T08:44:02;27.50;99.90
43607;DHT22;29197;44.788;10.366;2023-09-12T08:52:32;27.70;99.90
43607;DHT22;29197;44.788;10.366;2023-09-12T08:58:09;27.80;99.90
43607;DHT22;29197;44.788;10.366;2023-09-12T09:00:59;27.90;99.90
43607;DHT22;29197;44.788;10.366;2023-09-12T09:03:50;27.90;99.90
43607;DHT22;29197;44.788;10.366;2023-09-12T09:06:41;28.00;99.90
43607;DHT22;29197;44.788;10.366;2023-09-12T09:09:30;28.00;99.90
43607;DHT22;29197;44.788;10.366;2023-09-12T09:12:20;28.10;99.90
43607;DHT22;29197;44.788;10.366;2023-09-12T09:15:22;28.10;99.90
43607;DHT22;29197;44.788;10.366;2023-09-12T09:18:11;28.10;99.90
43607;DHT22;29197;44.788;10.366;2023-09-12T09:21:17;28.30;99.90
43607;DHT22;29197;44.788;10.366;2023-09-12T09:24:10;28.30;99.90
43607;DHT22;29197;44.788;10.366;2023-09-12T09:26:58;28.40;99.90
43607;DHT22;29197;44.788;10.366;2023-09-12T09:29:48;28.40;99.90
43607;DHT22;29197;44.788;10.366;2023-09-12T09:32:37;28.40;99.90
43607;DHT22;29197;44.788;10.366;2023-09-12T09:35:25;28.40;99.90
43607;DHT22;29197;44.788;10.366;2023-09-12T09:38:15;28.60;99.90
43607;DHT22;29197;44.788;10.366;2023-09-12T09:41:08;28.70;99.90
43607;DHT22;29197;44.788;10.366;2023-09-12T09:43:57;28.70;99.90
43607;DHT22;29197;44.788;10.366;2023-09-12T09:46:50;28.90;99.90
43607;DHT22;29197;44.788;10.366;2023-09-12T09:49:40;28.90;99.90
43607;DHT22;29197;44.788;10.366;2023-09-12T09:52:28;28.90;99.90
43607;DHT22;29197;44.788;10.366;2023-09-12T09:55:19;28.90;99.90
43607;DHT22;29197;44.788;10.366;2023-09-12T09:58:14;29.00;99.90
43607;DHT22;29197;44.788;10.366;2023-09-12T10:01:07;29.10;99.90
43607;DHT22;29197;44.788;10.366;2023-09-12T10:03:59;29.20;99.90
43607;DHT22;29197;44.788;10.366;2023-09-12T10:06:49;29.40;99.90
43607;DHT22;29197;44.788;10.366;2023-09-12T10:09:38;29.60;99.90
43607;DHT22;29197;44.788;10.366;2023-09-12T10:12:28;29.70;99.90
43607;DHT22;29197;44.788;10.366;2023-09-12T10:15:20;29.80;99.90
43607;DHT22;29197;44.788;10.366;2023-09-12T10:18:14;29.80;99.90
43607;DHT22;29197;44.788;10.366;2023-09-12T10:21:21;29.70;99.90
43607;DHT22;29197;44.788;10.366;2023-09-12T10:24:12;29.80;99.90
43607;DHT22;29197;44.788;10.366;2023-09-12T10:27:02;29.90;99.90
43607;DHT22;29197;44.788;10.366;2023-09-12T10:29:52;30.00;99.90
43607;DHT22;29197;44.788;10.366;2023-09-12T10:32:44;30.10;99.90
43607;DHT22;29197;44.788;10.366;2023-09-12T10:35:33;30.30;99.90
43607;DHT22;29197;44.788;10.366;2023-09-12T10:38:24;30.50;99.90
43607;DHT22;29197;44.788;10.366;2023-09-12T10:41:16;30.70;99.90
43607;DHT22;29197;44.788;10.366;2023-09-12T10:44:08;30.80;99.90
43607;DHT22;29197;44.788;10.366;2023-09-12T10:46:58;30.90;99.90
43607;DHT22;29197;44.788;10.366;2023-09-12T10:49:48;31.00;99.90
43607;DHT22;29197;44.788;10.366;2023-09-12T10:52:37;31.10;99.90
43607;DHT22;29197;44.788;10.366;2023-09-12T10:55:28;31.20;99.90
43607;DHT22;29197;44.788;10.366;2023-09-12T10:58:16;31.30;99.90
43607;DHT22;29197;44.788;10.366;2023-09-12T11:01:23;31.40;99.90
43607;DHT22;29197;44.788;10.366;2023-09-12T11:04:37;31.50;99.90
43607;DHT22;29197;44.788;10.366;2023-09-12T11:07:44;31.40;99.90
43607;DHT22;29197;44.788;10.366;2023-09-12T11:10:33;31.50;99.90
43607;DHT22;29197;44.788;10.366;2023-09-12T11:13:38;31.60;99.90
43607;DHT22;29197;44.788;10.366;2023-09-12T11:16:28;31.80;99.90
43607;DHT22;29197;44.788;10.366;2023-09-12T11:22:21;32.60;99.90
43607;DHT22;29197;44.788;10.366;2023-09-12T11:25:19;32.60;99.90
43607;DHT22;29197;44.788;10.366;2023-09-12T11:28:10;32.80;99.90
43607;DHT22;29197;44.788;10.366;2023-09-12T11:30:59;32.90;99.90
43607;DHT22;29197;44.788;10.366;2023-09-12T11:33:48;33.00;99.90
43607;DHT22;29197;44.788;10.366;2023-09-12T11:36:41;33.10;99.90
43607;DHT22;29197;44.788;10.366;2023-09-12T11:39:31;33.20;99.90
43607;DHT22;29197;44.788;10.366;2023-09-12T11:42:21;33.30;99.90
43607;DHT22;29197;44.788;10.366;2023-09-12T11:45:12;33.40;99.90
43607;DHT22;29197;44.788;10.366;2023-09-12T11:48:03;33.50;99.90
43607;DHT22;29197;44.788;10.366;2023-09-12T11:50:53;33.50;99.90
43607;DHT22;29197;44.788;10.366;2023-09-12T11:53:42;33.50;99.90
43607;DHT22;29197;44.788;10.366;2023-09-12T11:56:33;33.30;99.90
43607;DHT22;29197;44.788;10.366;2023-09-12T11:59:24;33.20;99.90
43607;DHT22;29197;44.788;10.366;2023-09-12T12:02:12;33.10;99.90
43607;DHT22;29197;44.788;10.366;2023-09-12T12:05:02;33.20;99.90
43607;DHT22;29197;44.788;10.366;2023-09-12T12:07:51;33.40;99.90
43607;DHT22;29197;44.788;10.366;2023-09-12T12:10:52;33.60;99.90
43607;DHT22;29197;44.788;10.366;2023-09-12T12:13:41;33.80;99.90
43607;DHT22;29197;44.788;10.366;2023-09-12T12:16:31;33.90;99.90
43607;DHT22;29197;44.788;10.366;2023-09-12T12:19:20;34.00;99.90
43607;DHT22;29197;44.788;10.366;2023-09-12T12:22:09;34.00;99.90
43607;DHT22;29197;44.788;10.366;2023-09-12T12:25:05;34.10;99.90
43607;DHT22;29197;44.788;10.366;2023-09-12T12:27:54;34.20;99.90
43607;DHT22;29197;44.788;10.366;2023-09-12T12:30:43;34.40;99.80
43607;DHT22;29197;44.788;10.366;2023-09-12T12:33:33;34.30;99.50
43607;DHT22;29197;44.788;10.366;2023-09-12T12:36:42;34.40;99.40
43607;DHT22;29197;44.788;10.366;2023-09-12T12:39:44;34.70;98.90
43607;DHT22;29197;44.788;10.366;2023-09-12T12:42:34;34.90;98.10
43607;DHT22;29197;44.788;10.366;2023-09-12T12:45:35;35.10;98.30
43607;DHT22;29197;44.788;10.366;2023-09-12T12:48:30;35.20;97.70
43607;DHT22;29197;44.788;10.366;2023-09-12T12:51:22;35.40;99.90
43607;DHT22;29197;44.788;10.366;2023-09-12T12:54:10;35.40;97.70
43607;DHT22;29197;44.788;10.366;2023-09-12T12:57:00;35.50;97.60
43607;DHT22;29197;44.788;10.366;2023-09-12T12:59:48;35.60;97.10
43607;DHT22;29197;44.788;10.366;2023-09-12T13:02:38;35.70;96.80
43607;DHT22;29197;44.788;10.366;2023-09-12T13:05:27;35.60;97.40
43607;DHT22;29197;44.788;10.366;2023-09-12T13:08:17;35.60;97.60
43607;DHT22;29197;44.788;10.366;2023-09-12T13:11:06;35.70;98.40
43607;DHT22;29197;44.788;10.366;2023-09-12T13:13:55;35.70;96.60
43607;DHT22;29197;44.788;10.366;2023-09-12T13:16:44;35.80;96.90
43607;DHT22;29197;44.788;10.366;2023-09-12T13:19:32;35.80;96.50
43607;DHT22;29197;44.788;10.366;2023-09-12T13:22:21;35.80;96.40
43607;DHT22;29197;44.788;10.366;2023-09-12T13:25:11;35.90;96.50
43607;DHT22;29197;44.788;10.366;2023-09-12T13:28:00;36.00;96.40
43607;DHT22;29197;44.788;10.366;2023-09-12T13:30:48;36.00;95.60
43607;DHT22;29197;44.788;10.366;2023-09-12T13:33:37;36.00;95.90
43607;DHT22;29197;44.788;10.366;2023-09-12T13:36:26;36.00;96.10
43607;DHT22;29197;44.788;10.366;2023-09-12T13:39:15;36.00;95.70
43607;DHT22;29197;44.788;10.366;2023-09-12T13:42:07;36.10;95.90
43607;DHT22;29197;44.788;10.366;2023-09-12T13:44:57;36.10;96.00
43607;DHT22;29197;44.788;10.366;2023-09-12T13:47:45;36.10;96.20
43607;DHT22;29197;44.788;10.366;2023-09-12T13:50:34;36.10;96.30
43607;DHT22;29197;44.788;10.366;2023-09-12T13:53:23;36.10;96.00
43607;DHT22;29197;44.788;10.366;2023-09-12T13:56:11;35.90;95.60
43607;DHT22;29197;44.788;10.366;2023-09-12T13:59:01;36.00;95.90
43607;DHT22;29197;44.788;10.366;2023-09-12T14:01:52;36.00;95.70
43607;DHT22;29197;44.788;10.366;2023-09-12T14:04:41;35.90;95.40
43607;DHT22;29197;44.788;10.366;2023-09-12T14:07:31;35.90;95.30
43607;DHT22;29197;44.788;10.366;2023-09-12T14:10:20;35.80;95.50
43607;DHT22;29197;44.788;10.366;2023-09-12T14:13:20;35.60;95.80
43607;DHT22;29197;44.788;10.366;2023-09-12T14:16:11;35.50;99.90
43607;DHT22;29197;44.788;10.366;2023-09-12T14:19:01;35.30;96.00
43607;DHT22;29197;44.788;10.366;2023-09-12T14:21:50;35.30;95.90
43607;DHT22;29197;44.788;10.366;2023-09-12T14:24:40;35.20;96.50
43607;DHT22;29197;44.788;10.366;2023-09-12T14:27:29;35.10;96.00
43607;DHT22;29197;44.788;10.366;2023-09-12T14:30:18;35.10;96.00
43607;DHT22;29197;44.788;10.366;2023-09-12T14:33:09;35.00;96.10
43607;DHT22;29197;44.788;10.366;2023-09-12T14:35:59;35.00;96.90
43607;DHT22;29197;44.788;10.366;2023-09-12T14:38:48;35.00;99.80
43607;DHT22;29197;44.788;10.366;2023-09-12T14:41:37;34.90;99.80
43607;DHT22;29197;44.788;10.366;2023-09-12T14:44:25;34.80;96.80
43607;DHT22;29197;44.788;10.366;2023-09-12T14:50:08;34.60;95.60
43607;DHT22;29197;44.788;10.366;2023-09-12T14:52:58;34.50;96.20
43607;DHT22;29197;44.788;10.366;2023-09-12T14:55:48;34.40;96.30
43607;DHT22;29197;44.788;10.366;2023-09-12T14:58:39;34.40;96.50
43607;DHT22;29197;44.788;10.366;2023-09-12T15:01:29;34.40;96.50
43607;DHT22;29197;44.788;10.366;2023-09-12T15:04:18;34.40;96.70
43607;DHT22;29197;44.788;10.366;2023-09-12T15:07:08;34.40;96.70
43607;DHT22;29197;44.788;10.366;2023-09-12T15:09:57;34.30;96.40
43607;DHT22;29197;44.788;10.366;2023-09-12T15:12:45;34.30;96.70
43607;DHT22;29197;44.788;10.366;2023-09-12T15:15:34;34.10;96.90
43607;DHT22;29197;44.788;10.366;2023-09-12T15:18:23;34.10;99.50
43607;DHT22;29197;44.788;10.366;2023-09-12T15:21:11;34.00;98.10
43607;DHT22;29197;44.788;10.366;2023-09-12T15:26:50;33.70;96.70
43607;DHT22;29197;44.788;10.366;2023-09-12T15:32:28;33.50;97.20
43607;DHT22;29197;44.788;10.366;2023-09-12T15:35:17;33.40;97.60
43607;DHT22;29197;44.788;10.366;2023-09-12T15:38:06;33.40;97.90
43607;DHT22;29197;44.788;10.366;2023-09-12T15:40:56;33.30;97.90
43607;DHT22;29197;44.788;10.366;2023-09-12T15:46:54;33.20;97.90
43607;DHT22;29197;44.788;10.366;2023-09-12T15:52:51;32.90;99.90
43607;DHT22;29197;44.788;10.366;2023-09-12T15:58:29;32.80;99.90
43607;DHT22;29197;44.788;10.366;2023-09-12T16:01:18;32.70;99.90
43607;DHT22;29197;44.788;10.366;2023-09-12T16:04:07;32.60;99.90
43607;DHT22;29197;44.788;10.366;2023-09-12T16:06:56;32.60;99.90
43607;DHT22;29197;44.788;10.366;2023-09-12T16:09:45;32.50;99.90
43607;DHT22;29197;44.788;10.366;2023-09-12T16:12:34;32.40;99.90
43607;DHT22;29197;44.788;10.366;2023-09-12T16:15:24;32.30;99.40
43607;DHT22;29197;44.788;10.366;2023-09-12T16:18:13;32.30;99.90
43607;DHT22;29197;44.788;10.366;2023-09-12T16:21:02;32.10;99.90
43607;DHT22;29197;44.788;10.366;2023-09-12T16:23:53;32.10;99.90
43607;DHT22;29197;44.788;10.366;2023-09-12T16:26:42;32.20;99.90
43607;DHT22;29197;44.788;10.366;2023-09-12T16:29:30;32.10;99.90
43607;DHT22;29197;44.788;10.366;2023-09-12T16:32:20;32.00;99.90
43607;DHT22;29197;44.788;10.366;2023-09-12T16:40:47;31.70;99.90
43607;DHT22;29197;44.788;10.366;2023-09-12T16:43:36;31.60;99.90
43607;DHT22;29197;44.788;10.366;2023-09-12T17:00:32;31.20;99.90
43607;DHT22;29197;44.788;10.366;2023-09-12T17:03:21;31.20;99.90
43607;DHT22;29197;44.788;10.366;2023-09-12T17:06:11;31.10;99.90
43607;DHT22;29197;44.788;10.366;2023-09-12T17:14:41;30.90;99.90
43607;DHT22;29197;44.788;10.366;2023-09-12T17:17:30;30.80;99.90
43607;DHT22;29197;44.788;10.366;2023-09-12T17:23:09;30.70;99.90
43607;DHT22;29197;44.788;10.366;2023-09-12T17:25:57;30.60;99.90
43607;DHT22;29197;44.788;10.366;2023-09-12T17:28:46;30.60;99.90
43607;DHT22;29197;44.788;10.366;2023-09-12T17:31:35;30.60;99.90
43607;DHT22;29197;44.788;10.366;2023-09-12T17:34:38;30.50;99.90
43607;DHT22;29197;44.788;10.366;2023-09-12T17:37:27;30.50;99.90
43607;DHT22;29197;44.788;10.366;2023-09-12T17:40:17;30.40;99.90
43607;DHT22;29197;44.788;10.366;2023-09-12T17:43:06;30.30;99.90
43607;DHT22;29197;44.788;10.366;2023-09-12T17:45:54;30.30;99.90
43607;DHT22;29197;44.788;10.366;2023-09-12T17:48:57;30.20;99.90
43607;DHT22;29197;44.788;10.366;2023-09-12T17:51:46;30.20;99.90
43607;DHT22;29197;44.788;10.366;2023-09-12T17:54:34;30.20;99.90
43607;DHT22;29197;44.788;10.366;2023-09-12T17:57:24;30.10;99.90
43607;DHT22;29197;44.788;10.366;2023-09-12T18:00:13;30.00;99.90
43607;DHT22;29197;44.788;10.366;2023-09-12T18:03:03;30.00;99.90
43607;DHT22;29197;44.788;10.366;2023-09-12T18:05:51;29.90;99.90
43607;DHT22;29197;44.788;10.366;2023-09-12T18:08:40;29.90;99.90
43607;DHT22;29197;44.788;10.366;2023-09-12T18:11:29;29.90;99.90
43607;DHT22;29197;44.788;10.366;2023-09-12T18:14:19;29.80;99.90
43607;DHT22;29197;44.788;10.366;2023-09-12T18:17:08;29.80;99.90
43607;DHT22;29197;44.788;10.366;2023-09-12T18:19:58;29.70;99.90
43607;DHT22;29197;44.788;10.366;2023-09-12T18:22:47;29.70;99.90
43607;DHT22;29197;44.788;10.366;2023-09-12T18:25:35;29.60;99.90
43607;DHT22;29197;44.788;10.366;2023-09-12T18:28:38;29.60;99.90
43607;DHT22;29197;44.788;10.366;2023-09-12T18:31:29;29.60;99.90
43607;DHT22;29197;44.788;10.366;2023-09-12T18:34:17;29.50;99.90
43607;DHT22;29197;44.788;10.366;2023-09-12T18:37:06;29.50;99.90
43607;DHT22;29197;44.788;10.366;2023-09-12T18:39:56;29.50;99.90